2252 UTC 29 July 2014 found at http://aviationweather.gov/adds/metars/
 
METAR text: KMNH 292233Z AUTO 11009KT 10SM -VCTSRA SCT060 OVC070 15/13 A3028 RMK AO2 LTG DSNT SE THRU SW P0001
Conditions at: KMNH (MONUMENT/ELBERT , CO, US) observed 2233 UTC 29 July 2014
Temperature: 15.0°C (59°F)
Dewpoint: 13.0°C (55°F) [RH = 88%]
Pressure (altimeter): 30.28 inches Hg (1025.5 mb)
Winds: from the ESE (110 degrees) at 10 MPH (9 knots; 4.7 m/s)
Visibility: 10 or more miles (16+ km)
Ceiling: 7000 feet AGL
Clouds: scattered clouds at 6000 feet AGL
overcast cloud deck at 7000 feet AGL
Weather: VCTS -RA  (thunderstorm in vicinity, light rain)

METAR text: KMNH 292213Z AUTO 11008KT 10SM DZ SCT060 OVC080 15/13 A3029 RMK AO2 LTG DSNT SE THRU W
Conditions at: KMNH (MONUMENT/ELBERT , CO, US) observed 2213 UTC 29 July 2014
Temperature: 15.0°C (59°F)
Dewpoint: 13.0°C (55°F) [RH = 88%]
Pressure (altimeter): 30.29 inches Hg (1025.8 mb)
Winds: from the ESE (110 degrees) at 9 MPH (8 knots; 4.2 m/s)
Visibility: 10 or more miles (16+ km)
Ceiling: 8000 feet AGL
Clouds: scattered clouds at 6000 feet AGL
overcast cloud deck at 8000 feet AGL
Weather: DZ  (drizzle)

METAR text: KMNH 292153Z AUTO 10007KT 10SM OVC080 15/13 A3028 RMK AO2 LTG DSNT ALQS P0005
Conditions at: KMNH (MONUMENT/ELBERT , CO, US) observed 2153 UTC 29 July 2014
Temperature: 15.0°C (59°F)
Dewpoint: 13.0°C (55°F) [RH = 88%]
Pressure (altimeter): 30.28 inches Hg (1025.5 mb)
Winds: from the E (100 degrees) at 8 MPH (7 knots; 3.6 m/s)
Visibility: 10 or more miles (16+ km)
Ceiling: 8000 feet AGL
Clouds: overcast cloud deck at 8000 feet AGL
Weather: automated observation with no human augmentation;
there may or may not be significant weather present at this time

METAR text: KMNH 292132Z AUTO 06009KT 10SM -VCTSRA SCT012 BKN031 OVC080 14/13 A3029 RMK AO2 LTG DSNT SE THRU SW P0005
Conditions at: KMNH (MONUMENT/ELBERT , CO, US) observed 2132 UTC 29 July 2014
Temperature: 14.0°C (57°F)
Dewpoint: 13.0°C (55°F) [RH = 94%]
Pressure (altimeter): 30.29 inches Hg (1025.8 mb)
Winds: from the ENE (60 degrees) at 10 MPH (9 knots; 4.7 m/s)
Visibility: 10 or more miles (16+ km)
Ceiling: 3100 feet AGL
Clouds: scattered clouds at 1200 feet AGL
broken clouds at 3100 feet AGL
overcast cloud deck at 8000 feet AGL
Weather: VCTS -RA  (thunderstorm in vicinity, light rain)

METAR text: KMNH 292113Z AUTO 05011G15KT 5SM VCTSRA BKN012 BKN023 OVC028 15/13 A3031 RMK AO2 LTG DSNT ALQS P0004
Conditions at: KMNH (MONUMENT/ELBERT , CO, US) observed 2113 UTC 29 July 2014
Temperature: 15.0°C (59°F)
Dewpoint: 13.0°C (55°F) [RH = 88%]
Pressure (altimeter): 30.31 inches Hg (1026.5 mb)
Winds: from the NE (50 degrees) at 13 MPH (11 knots; 5.7 m/sgusting to 17 MPH (15 knots; 7.8 m/s)
Visibility: 5 miles (8 km)
Ceiling: 1200 feet AGL
Clouds: broken clouds at 1200 feet AGL
broken clouds at 2300 feet AGL
overcast cloud deck at 2800 feet AGL
Weather: VCTSRA  ( could not decipher "VCTSRA")

METAR text: KMNH 292053Z AUTO 09008G18KT 10SM TSRA BKN028 BKN039 OVC070 15/13 A3032 RMK AO2 LTG DSNT ALQS
Conditions at: KMNH (MONUMENT/ELBERT , CO, US) observed 2053 UTC 29 July 2014
Temperature: 15.0°C (59°F)
Dewpoint: 13.0°C (55°F) [RH = 88%]
Pressure (altimeter): 30.32 inches Hg (1026.8 mb)
Winds: from the E (90 degrees) at 9 MPH (8 knots; 4.2 m/sgusting to 21 MPH (18 knots; 9.4 m/s)
Visibility: 10 or more miles (16+ km)
Ceiling: 2800 feet AGL
Clouds: broken clouds at 2800 feet AGL
broken clouds at 3900 feet AGL
overcast cloud deck at 7000 feet AGL
Weather: TSRA  (rain associated with thunderstorm(s))

METAR text: KMNH 292033Z AUTO 09011KT 10SM -TSRA SCT040 BKN060 OVC090 16/12 A3031 RMK AO2 LTG DSNT ALQS
Conditions at: KMNH (MONUMENT/ELBERT , CO, US) observed 2033 UTC 29 July 2014
Temperature: 16.0°C (61°F)
Dewpoint: 12.0°C (54°F) [RH = 77%]
Pressure (altimeter): 30.31 inches Hg (1026.5 mb)
Winds: from the E (90 degrees) at 13 MPH (11 knots; 5.7 m/s)
Visibility: 10 or more miles (16+ km)
Ceiling: 6000 feet AGL
Clouds: scattered clouds at 4000 feet AGL
broken clouds at 6000 feet AGL
overcast cloud deck at 9000 feet AGL
Weather: -TSRA  (light rain associated with thunderstorm(s))

METAR text: KMNH 292013Z AUTO 11015KT 10SM -VCTSRA SCT029 BKN042 OVC060 17/12 A3030 RMK AO2 LTG DSNT ALQS
Conditions at: KMNH (MONUMENT/ELBERT , CO, US) observed 2013 UTC 29 July 2014
Temperature: 17.0°C (63°F)
Dewpoint: 12.0°C (54°F) [RH = 72%]
Pressure (altimeter): 30.30 inches Hg (1026.2 mb)
Winds: from the ESE (110 degrees) at 17 MPH (15 knots; 7.8 m/s)
Visibility: 10 or more miles (16+ km)
Ceiling: 4200 feet AGL
Clouds: scattered clouds at 2900 feet AGL
broken clouds at 4200 feet AGL
overcast cloud deck at 6000 feet AGL
Weather: VCTS -RA  (thunderstorm in vicinity, light rain)

METAR text: KMNH 291953Z AUTO 11012KT 10SM -VCTSRA SCT039 BKN047 OVC060 21/12 A3030 RMK AO2 LTG DSNT ALQS
Conditions at: KMNH (MONUMENT/ELBERT , CO, US) observed 1953 UTC 29 July 2014
Temperature: 21.0°C (70°F)
Dewpoint: 12.0°C (54°F) [RH = 56%]
Pressure (altimeter): 30.30 inches Hg (1026.2 mb)
Winds: from the ESE (110 degrees) at 14 MPH (12 knots; 6.2 m/s)
Visibility: 10 or more miles (16+ km)
Ceiling: 4700 feet AGL
Clouds: scattered clouds at 3900 feet AGL
broken clouds at 4700 feet AGL
overcast cloud deck at 6000 feet AGL
Weather: VCTS -RA  (thunderstorm in vicinity, light rain)

METAR text: KMNH 291933Z AUTO 14007KT 10SM VCTS SCT046 BKN060 22/11 A3029 RMK AO2
Conditions at: KMNH (MONUMENT/ELBERT , CO, US) observed 1933 UTC 29 July 2014
Temperature: 22.0°C (72°F)
Dewpoint: 11.0°C (52°F) [RH = 50%]
Pressure (altimeter): 30.29 inches Hg (1025.8 mb)
Winds: from the SE (140 degrees) at 8 MPH (7 knots; 3.6 m/s)
Visibility: 10 or more miles (16+ km)
Ceiling: 6000 feet AGL
Clouds: scattered clouds at 4600 feet AGL
broken clouds at 6000 feet AGL
Weather: VCTS  (thunderstorm in vicinity)

METAR text: KMNH 291913Z AUTO 08004KT 10SM SCT060 SCT085 SCT110 22/11 A3030 RMK AO2 LTG DSNT E AND S
Conditions at: KMNH (MONUMENT/ELBERT , CO, US) observed 1913 UTC 29 July 2014
Temperature: 22.0°C (72°F)
Dewpoint: 11.0°C (52°F) [RH = 50%]
Pressure (altimeter): 30.30 inches Hg (1026.2 mb)
Winds: from the E (80 degrees) at 5 MPH (4 knots; 2.1 m/s)
Visibility: 10 or more miles (16+ km)
Ceiling: at least 12,000 feet AGL
Clouds: scattered clouds at 6000 feet AGL
scattered clouds at 8500 feet AGL
scattered clouds at 11000 feet AGL
Weather: automated observation with no human augmentation;
there may or may not be significant weather present at this time

METAR text: KMNH 291853Z AUTO 11003KT 10SM SCT085 SCT110 23/11 A3030 RMK AO2 LTG DSNT NW THRU E
Conditions at: KMNH (MONUMENT/ELBERT , CO, US) observed 1853 UTC 29 July 2014
Temperature: 23.0°C (73°F)
Dewpoint: 11.0°C (52°F) [RH = 47%]
Pressure (altimeter): 30.30 inches Hg (1026.2 mb)
Winds: from the ESE (110 degrees) at 3 MPH (3 knots; 1.6 m/s)
Visibility: 10 or more miles (16+ km)
Ceiling: at least 12,000 feet AGL
Clouds: scattered clouds at 8500 feet AGL
scattered clouds at 11000 feet AGL
Weather: automated observation with no human augmentation;
there may or may not be significant weather present at this time

METAR text: KMNH 291832Z AUTO 00000KT 10SM SCT040 SCT110 22/11 A3031 RMK AO2 LTG DSNT NE THRU S
Conditions at: KMNH (MONUMENT/ELBERT , CO, US) observed 1832 UTC 29 July 2014
Temperature: 22.0°C (72°F)
Dewpoint: 11.0°C (52°F) [RH = 50%]
Pressure (altimeter): 30.31 inches Hg (1026.5 mb)
Winds: calm
Visibility: 10 or more miles (16+ km)
Ceiling: at least 12,000 feet AGL
Clouds: scattered clouds at 4000 feet AGL
scattered clouds at 11000 feet AGL
Weather: automated observation with no human augmentation;
there may or may not be significant weather present at this time

METAR text: KMNH 291813Z AUTO 00000KT 10SM BKN040 SCT065 BKN075 21/11 A3032 RMK AO2 LTG DSNT E AND SE
Conditions at: KMNH (MONUMENT/ELBERT , CO, US) observed 1813 UTC 29 July 2014
Temperature: 21.0°C (70°F)
Dewpoint: 11.0°C (52°F) [RH = 53%]
Pressure (altimeter): 30.32 inches Hg (1026.8 mb)
Winds: calm
Visibility: 10 or more miles (16+ km)
Ceiling: 4000 feet AGL
Clouds: broken clouds at 4000 feet AGL
scattered clouds at 6500 feet AGL
broken clouds at 7500 feet AGL
Weather: automated observation with no human augmentation;
there may or may not be significant weather present at this time

METAR text: KMNH 291752Z AUTO 00000KT 10SM SCT040 SCT065 21/11 A3033 RMK AO2 LTG DSNT E THRU S
Conditions at: KMNH (MONUMENT/ELBERT , CO, US) observed 1752 UTC 29 July 2014
Temperature: 21.0°C (70°F)
Dewpoint: 11.0°C (52°F) [RH = 53%]
Pressure (altimeter): 30.33 inches Hg (1027.2 mb)
Winds: calm
Visibility: 10 or more miles (16+ km)
Ceiling: at least 12,000 feet AGL
Clouds: scattered clouds at 4000 feet AGL
scattered clouds at 6500 feet AGL
Weather: automated observation with no human augmentation;
there may or may not be significant weather present at this time

METAR text: KMNH 291733Z AUTO 14003KT 10SM SCT040 22/11 A3034 RMK AO2 LTG DSNT W
Conditions at: KMNH (MONUMENT/ELBERT , CO, US) observed 1733 UTC 29 July 2014
Temperature: 22.0°C (72°F)
Dewpoint: 11.0°C (52°F) [RH = 50%]
Pressure (altimeter): 30.34 inches Hg (1027.5 mb)
Winds: from the SE (140 degrees) at 3 MPH (3 knots; 1.6 m/s)
Visibility: 10 or more miles (16+ km)
Ceiling: at least 12,000 feet AGL
Clouds: scattered clouds at 4000 feet AGL
Weather: automated observation with no human augmentation;
there may or may not be significant weather present at this time

METAR text: KMNH 291713Z AUTO 00000KT 10SM SCT065 SCT100 21/11 A3035 RMK AO2 LTG DSNT W
Conditions at: KMNH (MONUMENT/ELBERT , CO, US) observed 1713 UTC 29 July 2014
Temperature: 21.0°C (70°F)
Dewpoint: 11.0°C (52°F) [RH = 53%]
Pressure (altimeter): 30.35 inches Hg (1027.9 mb)
Winds: calm
Visibility: 10 or more miles (16+ km)
Ceiling: at least 12,000 feet AGL
Clouds: scattered clouds at 6500 feet AGL
scattered clouds at 10000 feet AGL
Weather: automated observation with no human augmentation;
there may or may not be significant weather present at this time

METAR text: KMNH 291653Z AUTO 22003KT 10SM SCT028 BKN041 BKN065 20/13 A3035 RMK AO2
Conditions at: KMNH (MONUMENT/ELBERT , CO, US) observed 1653 UTC 29 July 2014
Temperature: 20.0°C (68°F)
Dewpoint: 13.0°C (55°F) [RH = 64%]
Pressure (altimeter): 30.35 inches Hg (1027.9 mb)
Winds: from the SW (220 degrees) at 3 MPH (3 knots; 1.6 m/s)
Visibility: 10 or more miles (16+ km)
Ceiling: 4100 feet AGL
Clouds: scattered clouds at 2800 feet AGL
broken clouds at 4100 feet AGL
broken clouds at 6500 feet AGL
Weather: automated observation with no human augmentation;
there may or may not be significant weather present at this time

METAR text: KMNH 291633Z AUTO 28003KT 10SM SCT030 SCT037 SCT046 20/13 A3035 RMK AO2
Conditions at: KMNH (MONUMENT/ELBERT , CO, US) observed 1633 UTC 29 July 2014
Temperature: 20.0°C (68°F)
Dewpoint: 13.0°C (55°F) [RH = 64%]
Pressure (altimeter): 30.35 inches Hg (1027.9 mb)
Winds: from the W (280 degrees) at 3 MPH (3 knots; 1.6 m/s)
Visibility: 10 or more miles (16+ km)
Ceiling: at least 12,000 feet AGL
Clouds: scattered clouds at 3000 feet AGL
scattered clouds at 3700 feet AGL
scattered clouds at 4600 feet AGL
Weather: automated observation with no human augmentation;
there may or may not be significant weather present at this time

METAR text: KMNH 291613Z AUTO 16003KT 10SM CLR 21/12 A3036 RMK AO2
Conditions at: KMNH (MONUMENT/ELBERT , CO, US) observed 1613 UTC 29 July 2014
Temperature: 21.0°C (70°F)
Dewpoint: 12.0°C (54°F) [RH = 56%]
Pressure (altimeter): 30.36 inches Hg (1028.2 mb)
Winds: from the SSE (160 degrees) at 3 MPH (3 knots; 1.6 m/s)
Visibility: 10 or more miles (16+ km)
Ceiling: at least 12,000 feet AGL
Clouds: sky clear below 12,000 feet AGL
Weather: automated observation with no human augmentation;
there may or may not be significant weather present at this time

METAR text: KMNH 291553Z AUTO 00000KT 10SM SCT120 20/12 A3036 RMK AO2
Conditions at: KMNH (MONUMENT/ELBERT , CO, US) observed 1553 UTC 29 July 2014
Temperature: 20.0°C (68°F)
Dewpoint: 12.0°C (54°F) [RH = 60%]
Pressure (altimeter): 30.36 inches Hg (1028.2 mb)
Winds: calm
Visibility: 10 or more miles (16+ km)
Ceiling: at least 12,000 feet AGL
Clouds: scattered clouds at 12000 feet AGL
Weather: automated observation with no human augmentation;
there may or may not be significant weather present at this time

METAR text: KMNH 291532Z AUTO 15003KT 10SM BKN120 18/12 A3036 RMK AO2
Conditions at: KMNH (MONUMENT/ELBERT , CO, US) observed 1532 UTC 29 July 2014
Temperature: 18.0°C (64°F)
Dewpoint: 12.0°C (54°F) [RH = 68%]
Pressure (altimeter): 30.36 inches Hg (1028.2 mb)
Winds: from the SSE (150 degrees) at 3 MPH (3 knots; 1.6 m/s)
Visibility: 10 or more miles (16+ km)
Ceiling: 12000 feet AGL
Clouds: broken clouds at 12000 feet AGL
Weather: automated observation with no human augmentation;
there may or may not be significant weather present at this time

METAR text: KMNH 291513Z AUTO 14003KT 10SM SCT120 18/11 A3036 RMK AO2
Conditions at: KMNH (MONUMENT/ELBERT , CO, US) observed 1513 UTC 29 July 2014
Temperature: 18.0°C (64°F)
Dewpoint: 11.0°C (52°F) [RH = 64%]
Pressure (altimeter): 30.36 inches Hg (1028.2 mb)
Winds: from the SE (140 degrees) at 3 MPH (3 knots; 1.6 m/s)
Visibility: 10 or more miles (16+ km)
Ceiling: at least 12,000 feet AGL
Clouds: scattered clouds at 12000 feet AGL
Weather: automated observation with no human augmentation;
there may or may not be significant weather present at this time

METAR text: KMNH 291453Z AUTO 00000KT 10SM CLR 19/12 A3036 RMK AO2
Conditions at: KMNH (MONUMENT/ELBERT , CO, US) observed 1453 UTC 29 July 2014
Temperature: 19.0°C (66°F)
Dewpoint: 12.0°C (54°F) [RH = 64%]
Pressure (altimeter): 30.36 inches Hg (1028.2 mb)
Winds: calm
Visibility: 10 or more miles (16+ km)
Ceiling: at least 12,000 feet AGL
Clouds: sky clear below 12,000 feet AGL
Weather: automated observation with no human augmentation;
there may or may not be significant weather present at this time

METAR text: KMNH 291433Z AUTO 00000KT 10SM CLR 18/12 A3036 RMK AO2
Conditions at: KMNH (MONUMENT/ELBERT , CO, US) observed 1433 UTC 29 July 2014
Temperature: 18.0°C (64°F)
Dewpoint: 12.0°C (54°F) [RH = 68%]
Pressure (altimeter): 30.36 inches Hg (1028.2 mb)
Winds: calm
Visibility: 10 or more miles (16+ km)
Ceiling: at least 12,000 feet AGL
Clouds: sky clear below 12,000 feet AGL
Weather: automated observation with no human augmentation;
there may or may not be significant weather present at this time

METAR text: KMNH 291413Z AUTO 00000KT 10SM CLR 18/11 A3036 RMK AO2
Conditions at: KMNH (MONUMENT/ELBERT , CO, US) observed 1413 UTC 29 July 2014
Temperature: 18.0°C (64°F)
Dewpoint: 11.0°C (52°F) [RH = 64%]
Pressure (altimeter): 30.36 inches Hg (1028.2 mb)
Winds: calm
Visibility: 10 or more miles (16+ km)
Ceiling: at least 12,000 feet AGL
Clouds: sky clear below 12,000 feet AGL
Weather: automated observation with no human augmentation;
there may or may not be significant weather present at this time

METAR text: KMNH 291353Z AUTO 00000KT 10SM CLR 17/11 A3036 RMK AO2
Conditions at: KMNH (MONUMENT/ELBERT , CO, US) observed 1353 UTC 29 July 2014
Temperature: 17.0°C (63°F)
Dewpoint: 11.0°C (52°F) [RH = 68%]
Pressure (altimeter): 30.36 inches Hg (1028.2 mb)
Winds: calm
Visibility: 10 or more miles (16+ km)
Ceiling: at least 12,000 feet AGL
Clouds: sky clear below 12,000 feet AGL
Weather: automated observation with no human augmentation;
there may or may not be significant weather present at this time

METAR text: KMNH 291332Z AUTO 00000KT 10SM CLR 17/11 A3036 RMK AO2
Conditions at: KMNH (MONUMENT/ELBERT , CO, US) observed 1332 UTC 29 July 2014
Temperature: 17.0°C (63°F)
Dewpoint: 11.0°C (52°F) [RH = 68%]
Pressure (altimeter): 30.36 inches Hg (1028.2 mb)
Winds: calm
Visibility: 10 or more miles (16+ km)
Ceiling: at least 12,000 feet AGL
Clouds: sky clear below 12,000 feet AGL
Weather: automated observation with no human augmentation;
there may or may not be significant weather present at this time

METAR text: KMNH 291313Z AUTO 00000KT 10SM CLR 16/11 A3035 RMK AO2
Conditions at: KMNH (MONUMENT/ELBERT , CO, US) observed 1313 UTC 29 July 2014
Temperature: 16.0°C (61°F)
Dewpoint: 11.0°C (52°F) [RH = 72%]
Pressure (altimeter): 30.35 inches Hg (1027.9 mb)
Winds: calm
Visibility: 10 or more miles (16+ km)
Ceiling: at least 12,000 feet AGL
Clouds: sky clear below 12,000 feet AGL
Weather: automated observation with no human augmentation;
there may or may not be significant weather present at this time

METAR text: KMNH 291253Z AUTO 11003KT 10SM CLR 13/11 A3035 RMK AO2
Conditions at: KMNH (MONUMENT/ELBERT , CO, US) observed 1253 UTC 29 July 2014
Temperature: 13.0°C (55°F)
Dewpoint: 11.0°C (52°F) [RH = 88%]
Pressure (altimeter): 30.35 inches Hg (1027.9 mb)
Winds: from the ESE (110 degrees) at 3 MPH (3 knots; 1.6 m/s)
Visibility: 10 or more miles (16+ km)
Ceiling: at least 12,000 feet AGL
Clouds: sky clear below 12,000 feet AGL
Weather: automated observation with no human augmentation;
there may or may not be significant weather present at this time

METAR text: KMNH 291233Z AUTO 18004KT 10SM CLR 11/09 A3035 RMK AO2
Conditions at: KMNH (MONUMENT/ELBERT , CO, US) observed 1233 UTC 29 July 2014
Temperature: 11.0°C (52°F)
Dewpoint: 9.0°C (48°F) [RH = 87%]
Pressure (altimeter): 30.35 inches Hg (1027.9 mb)
Winds: from the S (180 degrees) at 5 MPH (4 knots; 2.1 m/s)
Visibility: 10 or more miles (16+ km)
Ceiling: at least 12,000 feet AGL
Clouds: sky clear below 12,000 feet AGL
Weather: automated observation with no human augmentation;
there may or may not be significant weather present at this time

METAR text: KMNH 291213Z AUTO 19005KT 10SM CLR 10/08 A3035 RMK AO2
Conditions at: KMNH (MONUMENT/ELBERT , CO, US) observed 1213 UTC 29 July 2014
Temperature: 10.0°C (50°F)
Dewpoint: 8.0°C (46°F) [RH = 87%]
Pressure (altimeter): 30.35 inches Hg (1027.9 mb)
Winds: from the S (190 degrees) at 6 MPH (5 knots; 2.6 m/s)
Visibility: 10 or more miles (16+ km)
Ceiling: at least 12,000 feet AGL
Clouds: sky clear below 12,000 feet AGL
Weather: automated observation with no human augmentation;
there may or may not be significant weather present at this time

METAR text: KMNH 291153Z AUTO 17004KT 10SM CLR 11/08 A3034 RMK AO2
Conditions at: KMNH (MONUMENT/ELBERT , CO, US) observed 1153 UTC 29 July 2014
Temperature: 11.0°C (52°F)
Dewpoint: 8.0°C (46°F) [RH = 82%]
Pressure (altimeter): 30.34 inches Hg (1027.5 mb)
Winds: from the S (170 degrees) at 5 MPH (4 knots; 2.1 m/s)
Visibility: 10 or more miles (16+ km)
Ceiling: at least 12,000 feet AGL
Clouds: sky clear below 12,000 feet AGL
Weather: automated observation with no human augmentation;
there may or may not be significant weather present at this time

METAR text: KMNH 291132Z AUTO 18004KT 10SM CLR 11/08 A3034 RMK AO2
Conditions at: KMNH (MONUMENT/ELBERT , CO, US) observed 1132 UTC 29 July 2014
Temperature: 11.0°C (52°F)
Dewpoint: 8.0°C (46°F) [RH = 82%]
Pressure (altimeter): 30.34 inches Hg (1027.5 mb)
Winds: from the S (180 degrees) at 5 MPH (4 knots; 2.1 m/s)
Visibility: 10 or more miles (16+ km)
Ceiling: at least 12,000 feet AGL
Clouds: sky clear below 12,000 feet AGL
Weather: automated observation with no human augmentation;
there may or may not be significant weather present at this time

METAR text: KMNH 291113Z AUTO 19004KT 10SM CLR 11/08 A3034 RMK AO2
Conditions at: KMNH (MONUMENT/ELBERT , CO, US) observed 1113 UTC 29 July 2014
Temperature: 11.0°C (52°F)
Dewpoint: 8.0°C (46°F) [RH = 82%]
Pressure (altimeter): 30.34 inches Hg (1027.5 mb)
Winds: from the S (190 degrees) at 5 MPH (4 knots; 2.1 m/s)
Visibility: 10 or more miles (16+ km)
Ceiling: at least 12,000 feet AGL
Clouds: sky clear below 12,000 feet AGL
Weather: automated observation with no human augmentation;
there may or may not be significant weather present at this time

METAR text: KMNH 291053Z AUTO 18006KT 10SM CLR 11/08 A3035 RMK AO2
Conditions at: KMNH (MONUMENT/ELBERT , CO, US) observed 1053 UTC 29 July 2014
Temperature: 11.0°C (52°F)
Dewpoint: 8.0°C (46°F) [RH = 82%]
Pressure (altimeter): 30.35 inches Hg (1027.9 mb)
Winds: from the S (180 degrees) at 7 MPH (6 knots; 3.1 m/s)
Visibility: 10 or more miles (16+ km)
Ceiling: at least 12,000 feet AGL
Clouds: sky clear below 12,000 feet AGL
Weather: automated observation with no human augmentation;
there may or may not be significant weather present at this time

METAR text: KMNH 291032Z AUTO 18006KT 10SM CLR 11/08 A3035 RMK AO2
Conditions at: KMNH (MONUMENT/ELBERT , CO, US) observed 1032 UTC 29 July 2014
Temperature: 11.0°C (52°F)
Dewpoint: 8.0°C (46°F) [RH = 82%]
Pressure (altimeter): 30.35 inches Hg (1027.9 mb)
Winds: from the S (180 degrees) at 7 MPH (6 knots; 3.1 m/s)
Visibility: 10 or more miles (16+ km)
Ceiling: at least 12,000 feet AGL
Clouds: sky clear below 12,000 feet AGL
Weather: automated observation with no human augmentation;
there may or may not be significant weather present at this time

METAR text: KMNH 291012Z AUTO 19005KT 10SM CLR 11/08 A3035 RMK AO2
Conditions at: KMNH (MONUMENT/ELBERT , CO, US) observed 1012 UTC 29 July 2014
Temperature: 11.0°C (52°F)
Dewpoint: 8.0°C (46°F) [RH = 82%]
Pressure (altimeter): 30.35 inches Hg (1027.9 mb)
Winds: from the S (190 degrees) at 6 MPH (5 knots; 2.6 m/s)
Visibility: 10 or more miles (16+ km)
Ceiling: at least 12,000 feet AGL
Clouds: sky clear below 12,000 feet AGL
Weather: automated observation with no human augmentation;
there may or may not be significant weather present at this time

METAR text: KMNH 290952Z AUTO 21005KT 10SM CLR 11/08 A3035 RMK AO2
Conditions at: KMNH (MONUMENT/ELBERT , CO, US) observed 0952 UTC 29 July 2014
Temperature: 11.0°C (52°F)
Dewpoint: 8.0°C (46°F) [RH = 82%]
Pressure (altimeter): 30.35 inches Hg (1027.9 mb)
Winds: from the SSW (210 degrees) at 6 MPH (5 knots; 2.6 m/s)
Visibility: 10 or more miles (16+ km)
Ceiling: at least 12,000 feet AGL
Clouds: sky clear below 12,000 feet AGL
Weather: automated observation with no human augmentation;
there may or may not be significant weather present at this time

METAR text: KMNH 290933Z AUTO 21005KT 10SM CLR 12/09 A3035 RMK AO2
Conditions at: KMNH (MONUMENT/ELBERT , CO, US) observed 0933 UTC 29 July 2014
Temperature: 12.0°C (54°F)
Dewpoint: 9.0°C (48°F) [RH = 82%]
Pressure (altimeter): 30.35 inches Hg (1027.9 mb)
Winds: from the SSW (210 degrees) at 6 MPH (5 knots; 2.6 m/s)
Visibility: 10 or more miles (16+ km)
Ceiling: at least 12,000 feet AGL
Clouds: sky clear below 12,000 feet AGL
Weather: automated observation with no human augmentation;
there may or may not be significant weather present at this time

METAR text: KMNH 290913Z AUTO 20003KT 10SM CLR 12/09 A3036 RMK AO2
Conditions at: KMNH (MONUMENT/ELBERT , CO, US) observed 0913 UTC 29 July 2014
Temperature: 12.0°C (54°F)
Dewpoint: 9.0°C (48°F) [RH = 82%]
Pressure (altimeter): 30.36 inches Hg (1028.2 mb)
Winds: from the SSW (200 degrees) at 3 MPH (3 knots; 1.6 m/s)
Visibility: 10 or more miles (16+ km)
Ceiling: at least 12,000 feet AGL
Clouds: sky clear below 12,000 feet AGL
Weather: automated observation with no human augmentation;
there may or may not be significant weather present at this time

METAR text: KMNH 290853Z AUTO 28006KT 10SM CLR 13/08 A3036 RMK AO2
Conditions at: KMNH (MONUMENT/ELBERT , CO, US) observed 0853 UTC 29 July 2014
Temperature: 13.0°C (55°F)
Dewpoint: 8.0°C (46°F) [RH = 72%]
Pressure (altimeter): 30.36 inches Hg (1028.2 mb)
Winds: from the W (280 degrees) at 7 MPH (6 knots; 3.1 m/s)
Visibility: 10 or more miles (16+ km)
Ceiling: at least 12,000 feet AGL
Clouds: sky clear below 12,000 feet AGL
Weather: automated observation with no human augmentation;
there may or may not be significant weather present at this time

METAR text: KMNH 290833Z AUTO 27006KT 10SM CLR 12/10 A3037 RMK AO2
Conditions at: KMNH (MONUMENT/ELBERT , CO, US) observed 0833 UTC 29 July 2014
Temperature: 12.0°C (54°F)
Dewpoint: 10.0°C (50°F) [RH = 88%]
Pressure (altimeter): 30.37 inches Hg (1028.5 mb)
Winds: from the W (270 degrees) at 7 MPH (6 knots; 3.1 m/s)
Visibility: 10 or more miles (16+ km)
Ceiling: at least 12,000 feet AGL
Clouds: sky clear below 12,000 feet AGL
Weather: automated observation with no human augmentation;
there may or may not be significant weather present at this time

METAR text: KMNH 290813Z AUTO 24006KT 10SM CLR 12/10 A3037 RMK AO2
Conditions at: KMNH (MONUMENT/ELBERT , CO, US) observed 0813 UTC 29 July 2014
Temperature: 12.0°C (54°F)
Dewpoint: 10.0°C (50°F) [RH = 88%]
Pressure (altimeter): 30.37 inches Hg (1028.5 mb)
Winds: from the WSW (240 degrees) at 7 MPH (6 knots; 3.1 m/s)
Visibility: 10 or more miles (16+ km)
Ceiling: at least 12,000 feet AGL
Clouds: sky clear below 12,000 feet AGL
Weather: automated observation with no human augmentation;
there may or may not be significant weather present at this time

METAR text: KMNH 290753Z AUTO 23006KT 10SM CLR 13/09 A3037 RMK AO2
Conditions at: KMNH (MONUMENT/ELBERT , CO, US) observed 0753 UTC 29 July 2014
Temperature: 13.0°C (55°F)
Dewpoint: 9.0°C (48°F) [RH = 77%]
Pressure (altimeter): 30.37 inches Hg (1028.5 mb)
Winds: from the SW (230 degrees) at 7 MPH (6 knots; 3.1 m/s)
Visibility: 10 or more miles (16+ km)
Ceiling: at least 12,000 feet AGL
Clouds: sky clear below 12,000 feet AGL
Weather: automated observation with no human augmentation;
there may or may not be significant weather present at this time

METAR text: KMNH 290733Z AUTO 23007KT 10SM CLR 14/10 A3038 RMK AO2
Conditions at: KMNH (MONUMENT/ELBERT , CO, US) observed 0733 UTC 29 July 2014
Temperature: 14.0°C (57°F)
Dewpoint: 10.0°C (50°F) [RH = 77%]
Pressure (altimeter): 30.38 inches Hg (1028.9 mb)
Winds: from the SW (230 degrees) at 8 MPH (7 knots; 3.6 m/s)
Visibility: 10 or more miles (16+ km)
Ceiling: at least 12,000 feet AGL
Clouds: sky clear below 12,000 feet AGL
Weather: automated observation with no human augmentation;
there may or may not be significant weather present at this time

METAR text: KMNH 290713Z AUTO 22008KT 10SM CLR 13/10 A3038 RMK AO2
Conditions at: KMNH (MONUMENT/ELBERT , CO, US) observed 0713 UTC 29 July 2014
Temperature: 13.0°C (55°F)
Dewpoint: 10.0°C (50°F) [RH = 82%]
Pressure (altimeter): 30.38 inches Hg (1028.9 mb)
Winds: from the SW (220 degrees) at 9 MPH (8 knots; 4.2 m/s)
Visibility: 10 or more miles (16+ km)
Ceiling: at least 12,000 feet AGL
Clouds: sky clear below 12,000 feet AGL
Weather: automated observation with no human augmentation;
there may or may not be significant weather present at this time

METAR text: KMNH 290653Z AUTO 21006KT 10SM CLR 13/11 A3038 RMK AO2
Conditions at: KMNH (MONUMENT/ELBERT , CO, US) observed 0653 UTC 29 July 2014
Temperature: 13.0°C (55°F)
Dewpoint: 11.0°C (52°F) [RH = 88%]
Pressure (altimeter): 30.38 inches Hg (1028.9 mb)
Winds: from the SSW (210 degrees) at 7 MPH (6 knots; 3.1 m/s)
Visibility: 10 or more miles (16+ km)
Ceiling: at least 12,000 feet AGL
Clouds: sky clear below 12,000 feet AGL
Weather: automated observation with no human augmentation;
there may or may not be significant weather present at this time

METAR text: KMNH 290633Z AUTO 21006KT 10SM CLR 14/11 A3039 RMK AO2
Conditions at: KMNH (MONUMENT/ELBERT , CO, US) observed 0633 UTC 29 July 2014
Temperature: 14.0°C (57°F)
Dewpoint: 11.0°C (52°F) [RH = 82%]
Pressure (altimeter): 30.39 inches Hg (1029.2 mb)
Winds: from the SSW (210 degrees) at 7 MPH (6 knots; 3.1 m/s)
Visibility: 10 or more miles (16+ km)
Ceiling: at least 12,000 feet AGL
Clouds: sky clear below 12,000 feet AGL
Weather: automated observation with no human augmentation;
there may or may not be significant weather present at this time

METAR text: KMNH 290613Z AUTO 21006KT 10SM CLR 14/11 A3039 RMK AO2
Conditions at: KMNH (MONUMENT/ELBERT , CO, US) observed 0613 UTC 29 July 2014
Temperature: 14.0°C (57°F)
Dewpoint: 11.0°C (52°F) [RH = 82%]
Pressure (altimeter): 30.39 inches Hg (1029.2 mb)
Winds: from the SSW (210 degrees) at 7 MPH (6 knots; 3.1 m/s)
Visibility: 10 or more miles (16+ km)
Ceiling: at least 12,000 feet AGL
Clouds: sky clear below 12,000 feet AGL
Weather: automated observation with no human augmentation;
there may or may not be significant weather present at this time

METAR text: KMNH 290553Z AUTO 21006KT 10SM CLR 13/12 A3040 RMK AO2
Conditions at: KMNH (MONUMENT/ELBERT , CO, US) observed 0553 UTC 29 July 2014
Temperature: 13.0°C (55°F)
Dewpoint: 12.0°C (54°F) [RH = 94%]
Pressure (altimeter): 30.40 inches Hg (1029.5 mb)
Winds: from the SSW (210 degrees) at 7 MPH (6 knots; 3.1 m/s)
Visibility: 10 or more miles (16+ km)
Ceiling: at least 12,000 feet AGL
Clouds: sky clear below 12,000 feet AGL
Weather: automated observation with no human augmentation;
there may or may not be significant weather present at this time

METAR text: KMNH 290533Z AUTO 21006KT 10SM CLR 13/13 A3041 RMK AO2
Conditions at: KMNH (MONUMENT/ELBERT , CO, US) observed 0533 UTC 29 July 2014
Temperature: 13.0°C (55°F)
Dewpoint: 13.0°C (55°F) [RH = 100%]
Pressure (altimeter): 30.41 inches Hg (1029.9 mb)
Winds: from the SSW (210 degrees) at 7 MPH (6 knots; 3.1 m/s)
Visibility: 10 or more miles (16+ km)
Ceiling: at least 12,000 feet AGL
Clouds: sky clear below 12,000 feet AGL
Weather: automated observation with no human augmentation;
there may or may not be significant weather present at this time

METAR text: KMNH 290512Z AUTO 20006KT 10SM CLR 14/13 A3041 RMK AO2
Conditions at: KMNH (MONUMENT/ELBERT , CO, US) observed 0512 UTC 29 July 2014
Temperature: 14.0°C (57°F)
Dewpoint: 13.0°C (55°F) [RH = 94%]
Pressure (altimeter): 30.41 inches Hg (1029.9 mb)
Winds: from the SSW (200 degrees) at 7 MPH (6 knots; 3.1 m/s)
Visibility: 10 or more miles (16+ km)
Ceiling: at least 12,000 feet AGL
Clouds: sky clear below 12,000 feet AGL
Weather: automated observation with no human augmentation;
there may or may not be significant weather present at this time

METAR text: KMNH 290453Z AUTO 20008KT 10SM CLR 14/13 A3041 RMK AO2
Conditions at: KMNH (MONUMENT/ELBERT , CO, US) observed 0453 UTC 29 July 2014
Temperature: 14.0°C (57°F)
Dewpoint: 13.0°C (55°F) [RH = 94%]
Pressure (altimeter): 30.41 inches Hg (1029.9 mb)
Winds: from the SSW (200 degrees) at 9 MPH (8 knots; 4.2 m/s)
Visibility: 10 or more miles (16+ km)
Ceiling: at least 12,000 feet AGL
Clouds: sky clear below 12,000 feet AGL
Weather: automated observation with no human augmentation;
there may or may not be significant weather present at this time

METAR text: KMNH 290433Z AUTO 20008KT 10SM CLR 13/13 A3042 RMK AO2
Conditions at: KMNH (MONUMENT/ELBERT , CO, US) observed 0433 UTC 29 July 2014
Temperature: 13.0°C (55°F)
Dewpoint: 13.0°C (55°F) [RH = 100%]
Pressure (altimeter): 30.42 inches Hg (1030.2 mb)
Winds: from the SSW (200 degrees) at 9 MPH (8 knots; 4.2 m/s)
Visibility: 10 or more miles (16+ km)
Ceiling: at least 12,000 feet AGL
Clouds: sky clear below 12,000 feet AGL
Weather: automated observation with no human augmentation;
there may or may not be significant weather present at this time

METAR text: KMNH 290413Z AUTO 19007KT 10SM CLR 13/13 A3042 RMK AO2
Conditions at: KMNH (MONUMENT/ELBERT , CO, US) observed 0413 UTC 29 July 2014
Temperature: 13.0°C (55°F)
Dewpoint: 13.0°C (55°F) [RH = 100%]
Pressure (altimeter): 30.42 inches Hg (1030.2 mb)
Winds: from the S (190 degrees) at 8 MPH (7 knots; 3.6 m/s)
Visibility: 10 or more miles (16+ km)
Ceiling: at least 12,000 feet AGL
Clouds: sky clear below 12,000 feet AGL
Weather: automated observation with no human augmentation;
there may or may not be significant weather present at this time

METAR text: KMNH 290353Z AUTO 17006KT 10SM CLR 15/13 A3042 RMK AO2
Conditions at: KMNH (MONUMENT/ELBERT , CO, US) observed 0353 UTC 29 July 2014
Temperature: 15.0°C (59°F)
Dewpoint: 13.0°C (55°F) [RH = 88%]
Pressure (altimeter): 30.42 inches Hg (1030.2 mb)
Winds: from the S (170 degrees) at 7 MPH (6 knots; 3.1 m/s)
Visibility: 10 or more miles (16+ km)
Ceiling: at least 12,000 feet AGL
Clouds: sky clear below 12,000 feet AGL
Weather: automated observation with no human augmentation;
there may or may not be significant weather present at this time

METAR text: KMNH 290333Z AUTO 18007KT 10SM CLR 15/13 A3042 RMK AO2
Conditions at: KMNH (MONUMENT/ELBERT , CO, US) observed 0333 UTC 29 July 2014
Temperature: 15.0°C (59°F)
Dewpoint: 13.0°C (55°F) [RH = 88%]
Pressure (altimeter): 30.42 inches Hg (1030.2 mb)
Winds: from the S (180 degrees) at 8 MPH (7 knots; 3.6 m/s)
Visibility: 10 or more miles (16+ km)
Ceiling: at least 12,000 feet AGL
Clouds: sky clear below 12,000 feet AGL
Weather: automated observation with no human augmentation;
there may or may not be significant weather present at this time

METAR text: KMNH 290313Z AUTO 19008KT 10SM CLR 15/13 A3041 RMK AO2
Conditions at: KMNH (MONUMENT/ELBERT , CO, US) observed 0313 UTC 29 July 2014
Temperature: 15.0°C (59°F)
Dewpoint: 13.0°C (55°F) [RH = 88%]
Pressure (altimeter): 30.41 inches Hg (1029.9 mb)
Winds: from the S (190 degrees) at 9 MPH (8 knots; 4.2 m/s)
Visibility: 10 or more miles (16+ km)
Ceiling: at least 12,000 feet AGL
Clouds: sky clear below 12,000 feet AGL
Weather: automated observation with no human augmentation;
there may or may not be significant weather present at this time

METAR text: KMNH 290253Z AUTO 19009KT 10SM CLR 15/13 A3041 RMK AO2
Conditions at: KMNH (MONUMENT/ELBERT , CO, US) observed 0253 UTC 29 July 2014
Temperature: 15.0°C (59°F)
Dewpoint: 13.0°C (55°F) [RH = 88%]
Pressure (altimeter): 30.41 inches Hg (1029.9 mb)
Winds: from the S (190 degrees) at 10 MPH (9 knots; 4.7 m/s)
Visibility: 10 or more miles (16+ km)
Ceiling: at least 12,000 feet AGL
Clouds: sky clear below 12,000 feet AGL
Weather: automated observation with no human augmentation;
there may or may not be significant weather present at this time

METAR text: KMNH 290233Z AUTO 19006KT 10SM CLR 15/13 A3040 RMK AO2
Conditions at: KMNH (MONUMENT/ELBERT , CO, US) observed 0233 UTC 29 July 2014
Temperature: 15.0°C (59°F)
Dewpoint: 13.0°C (55°F) [RH = 88%]
Pressure (altimeter): 30.40 inches Hg (1029.5 mb)
Winds: from the S (190 degrees) at 7 MPH (6 knots; 3.1 m/s)
Visibility: 10 or more miles (16+ km)
Ceiling: at least 12,000 feet AGL
Clouds: sky clear below 12,000 feet AGL
Weather: automated observation with no human augmentation;
there may or may not be significant weather present at this time

METAR text: KMNH 290213Z AUTO 17008KT 10SM CLR 16/13 A3039 RMK AO2
Conditions at: KMNH (MONUMENT/ELBERT , CO, US) observed 0213 UTC 29 July 2014
Temperature: 16.0°C (61°F)
Dewpoint: 13.0°C (55°F) [RH = 82%]
Pressure (altimeter): 30.39 inches Hg (1029.2 mb)
Winds: from the S (170 degrees) at 9 MPH (8 knots; 4.2 m/s)
Visibility: 10 or more miles (16+ km)
Ceiling: at least 12,000 feet AGL
Clouds: sky clear below 12,000 feet AGL
Weather: automated observation with no human augmentation;
there may or may not be significant weather present at this time

METAR text: KMNH 290153Z AUTO 17007KT 10SM CLR 17/13 A3039 RMK AO2 LTG DSNT S AND SW
Conditions at: KMNH (MONUMENT/ELBERT , CO, US) observed 0153 UTC 29 July 2014
Temperature: 17.0°C (63°F)
Dewpoint: 13.0°C (55°F) [RH = 77%]
Pressure (altimeter): 30.39 inches Hg (1029.2 mb)
Winds: from the S (170 degrees) at 8 MPH (7 knots; 3.6 m/s)
Visibility: 10 or more miles (16+ km)
Ceiling: at least 12,000 feet AGL
Clouds: sky clear below 12,000 feet AGL
Weather: automated observation with no human augmentation;
there may or may not be significant weather present at this time

METAR text: KMNH 290133Z AUTO 18010KT 10SM CLR 17/14 A3039 RMK AO2 LTG DSNT S
Conditions at: KMNH (MONUMENT/ELBERT , CO, US) observed 0133 UTC 29 July 2014
Temperature: 17.0°C (63°F)
Dewpoint: 14.0°C (57°F) [RH = 82%]
Pressure (altimeter): 30.39 inches Hg (1029.2 mb)
Winds: from the S (180 degrees) at 12 MPH (10 knots; 5.2 m/s)
Visibility: 10 or more miles (16+ km)
Ceiling: at least 12,000 feet AGL
Clouds: sky clear below 12,000 feet AGL
Weather: automated observation with no human augmentation;
there may or may not be significant weather present at this time

METAR text: KMNH 290113Z AUTO 18008KT 10SM CLR 17/14 A3039 RMK AO2 LTG DSNT S
Conditions at: KMNH (MONUMENT/ELBERT , CO, US) observed 0113 UTC 29 July 2014
Temperature: 17.0°C (63°F)
Dewpoint: 14.0°C (57°F) [RH = 82%]
Pressure (altimeter): 30.39 inches Hg (1029.2 mb)
Winds: from the S (180 degrees) at 9 MPH (8 knots; 4.2 m/s)
Visibility: 10 or more miles (16+ km)
Ceiling: at least 12,000 feet AGL
Clouds: sky clear below 12,000 feet AGL
Weather: automated observation with no human augmentation;
there may or may not be significant weather present at this time

METAR text: KMNH 290053Z AUTO 18009KT 10SM CLR 17/14 A3039 RMK AO2 LTG DSNT S AND SW
Conditions at: KMNH (MONUMENT/ELBERT , CO, US) observed 0053 UTC 29 July 2014
Temperature: 17.0°C (63°F)
Dewpoint: 14.0°C (57°F) [RH = 82%]
Pressure (altimeter): 30.39 inches Hg (1029.2 mb)
Winds: from the S (180 degrees) at 10 MPH (9 knots; 4.7 m/s)
Visibility: 10 or more miles (16+ km)
Ceiling: at least 12,000 feet AGL
Clouds: sky clear below 12,000 feet AGL
Weather: automated observation with no human augmentation;
there may or may not be significant weather present at this time

METAR text: KMNH 290033Z AUTO 18006KT 10SM CLR 17/14 A3040 RMK AO2 LTG DSNT S THRU W
Conditions at: KMNH (MONUMENT/ELBERT , CO, US) observed 0033 UTC 29 July 2014
Temperature: 17.0°C (63°F)
Dewpoint: 14.0°C (57°F) [RH = 82%]
Pressure (altimeter): 30.40 inches Hg (1029.5 mb)
Winds: from the S (180 degrees) at 7 MPH (6 knots; 3.1 m/s)
Visibility: 10 or more miles (16+ km)
Ceiling: at least 12,000 feet AGL
Clouds: sky clear below 12,000 feet AGL
Weather: automated observation with no human augmentation;
there may or may not be significant weather present at this time

METAR text: KMNH 290013Z AUTO 18008KT 10SM CLR 17/14 A3041 RMK AO2
Conditions at: KMNH (MONUMENT/ELBERT , CO, US) observed 0013 UTC 29 July 2014
Temperature: 17.0°C (63°F)
Dewpoint: 14.0°C (57°F) [RH = 82%]
Pressure (altimeter): 30.41 inches Hg (1029.9 mb)
Winds: from the S (180 degrees) at 9 MPH (8 knots; 4.2 m/s)
Visibility: 10 or more miles (16+ km)
Ceiling: at least 12,000 feet AGL
Clouds: sky clear below 12,000 feet AGL
Weather: automated observation with no human augmentation;
there may or may not be significant weather present at this time

METAR text: KMNH 282353Z AUTO 18006KT 10SM CLR 17/14 A3041 RMK AO2 LTG DSNT S AND W
Conditions at: KMNH (MONUMENT/ELBERT , CO, US) observed 2353 UTC 28 July 2014
Temperature: 17.0°C (63°F)
Dewpoint: 14.0°C (57°F) [RH = 82%]
Pressure (altimeter): 30.41 inches Hg (1029.9 mb)
Winds: from the S (180 degrees) at 7 MPH (6 knots; 3.1 m/s)
Visibility: 10 or more miles (16+ km)
Ceiling: at least 12,000 feet AGL
Clouds: sky clear below 12,000 feet AGL
Weather: automated observation with no human augmentation;
there may or may not be significant weather present at this time

METAR text: KMNH 282333Z AUTO 18007KT 10SM CLR 17/14 A3042 RMK AO2 LTG DSNT S
Conditions at: KMNH (MONUMENT/ELBERT , CO, US) observed 2333 UTC 28 July 2014
Temperature: 17.0°C (63°F)
Dewpoint: 14.0°C (57°F) [RH = 82%]
Pressure (altimeter): 30.42 inches Hg (1030.2 mb)
Winds: from the S (180 degrees) at 8 MPH (7 knots; 3.6 m/s)
Visibility: 10 or more miles (16+ km)
Ceiling: at least 12,000 feet AGL
Clouds: sky clear below 12,000 feet AGL
Weather: automated observation with no human augmentation;
there may or may not be significant weather present at this time

METAR text: KMNH 282313Z AUTO 19009KT 10SM CLR 17/14 A3042 RMK AO2
Conditions at: KMNH (MONUMENT/ELBERT , CO, US) observed 2313 UTC 28 July 2014
Temperature: 17.0°C (63°F)
Dewpoint: 14.0°C (57°F) [RH = 82%]
Pressure (altimeter): 30.42 inches Hg (1030.2 mb)
Winds: from the S (190 degrees) at 10 MPH (9 knots; 4.7 m/s)
Visibility: 10 or more miles (16+ km)
Ceiling: at least 12,000 feet AGL
Clouds: sky clear below 12,000 feet AGL
Weather: automated observation with no human augmentation;
there may or may not be significant weather present at this time

METAR text: KMNH 282253Z AUTO 20006KT 10SM CLR 17/14 A3043 RMK AO2 LTG DSNT SW AND W
Conditions at: KMNH (MONUMENT/ELBERT , CO, US) observed 2253 UTC 28 July 2014
Temperature: 17.0°C (63°F)
Dewpoint: 14.0°C (57°F) [RH = 82%]
Pressure (altimeter): 30.43 inches Hg (1030.6 mb)
Winds: from the SSW (200 degrees) at 7 MPH (6 knots; 3.1 m/s)
Visibility: 10 or more miles (16+ km)
Ceiling: at least 12,000 feet AGL
Clouds: sky clear below 12,000 feet AGL
Weather: automated observation with no human augmentation;
there may or may not be significant weather present at this time

METAR text: KMNH 282233Z AUTO 19008KT 10SM CLR 18/13 A3043 RMK AO2 LTG DSNT SW AND W
Conditions at: KMNH (MONUMENT/ELBERT , CO, US) observed 2233 UTC 28 July 2014
Temperature: 18.0°C (64°F)
Dewpoint: 13.0°C (55°F) [RH = 73%]
Pressure (altimeter): 30.43 inches Hg (1030.6 mb)
Winds: from the S (190 degrees) at 9 MPH (8 knots; 4.2 m/s)
Visibility: 10 or more miles (16+ km)
Ceiling: at least 12,000 feet AGL
Clouds: sky clear below 12,000 feet AGL
Weather: automated observation with no human augmentation;
there may or may not be significant weather present at this time

METAR text: KMNH 282213Z AUTO 19009KT 10SM VCTS CLR 18/13 A3043 RMK AO2 LTG DSNT S THRU N
Conditions at: KMNH (MONUMENT/ELBERT , CO, US) observed 2213 UTC 28 July 2014
Temperature: 18.0°C (64°F)
Dewpoint: 13.0°C (55°F) [RH = 73%]
Pressure (altimeter): 30.43 inches Hg (1030.6 mb)
Winds: from the S (190 degrees) at 10 MPH (9 knots; 4.7 m/s)
Visibility: 10 or more miles (16+ km)
Ceiling: at least 12,000 feet AGL
Clouds: sky clear below 12,000 feet AGL
Weather: VCTS  (thunderstorm in vicinity)

METAR text: KMNH 282153Z AUTO 17009KT 10SM CLR 18/13 A3043 RMK AO2 LTG DSNT SW
Conditions at: KMNH (MONUMENT/ELBERT , CO, US) observed 2153 UTC 28 July 2014
Temperature: 18.0°C (64°F)
Dewpoint: 13.0°C (55°F) [RH = 73%]
Pressure (altimeter): 30.43 inches Hg (1030.6 mb)
Winds: from the S (170 degrees) at 10 MPH (9 knots; 4.7 m/s)
Visibility: 10 or more miles (16+ km)
Ceiling: at least 12,000 feet AGL
Clouds: sky clear below 12,000 feet AGL
Weather: automated observation with no human augmentation;
there may or may not be significant weather present at this time

METAR text: KMNH 282133Z AUTO 18011KT 10SM CLR 18/13 A3043 RMK AO2 LTG DSNT S THRU NW
Conditions at: KMNH (MONUMENT/ELBERT , CO, US) observed 2133 UTC 28 July 2014
Temperature: 18.0°C (64°F)
Dewpoint: 13.0°C (55°F) [RH = 73%]
Pressure (altimeter): 30.43 inches Hg (1030.6 mb)
Winds: from the S (180 degrees) at 13 MPH (11 knots; 5.7 m/s)
Visibility: 10 or more miles (16+ km)
Ceiling: at least 12,000 feet AGL
Clouds: sky clear below 12,000 feet AGL
Weather: automated observation with no human augmentation;
there may or may not be significant weather present at this time

METAR text: KMNH 282113Z AUTO 17011G16KT 10SM CLR 19/13 A3043 RMK AO2 LTG DSNT SW THRU NW
Conditions at: KMNH (MONUMENT/ELBERT , CO, US) observed 2113 UTC 28 July 2014
Temperature: 19.0°C (66°F)
Dewpoint: 13.0°C (55°F) [RH = 68%]
Pressure (altimeter): 30.43 inches Hg (1030.6 mb)
Winds: from the S (170 degrees) at 13 MPH (11 knots; 5.7 m/sgusting to 18 MPH (16 knots; 8.3 m/s)
Visibility: 10 or more miles (16+ km)
Ceiling: at least 12,000 feet AGL
Clouds: sky clear below 12,000 feet AGL
Weather: automated observation with no human augmentation;
there may or may not be significant weather present at this time

METAR text: KMNH 282052Z AUTO 16013KT 10SM CLR 20/13 A3044 RMK AO2 LTG DSNT SW AND W
Conditions at: KMNH (MONUMENT/ELBERT , CO, US) observed 2052 UTC 28 July 2014
Temperature: 20.0°C (68°F)
Dewpoint: 13.0°C (55°F) [RH = 64%]
Pressure (altimeter): 30.44 inches Hg (1030.9 mb)
Winds: from the SSE (160 degrees) at 15 MPH (13 knots; 6.8 m/s)
Visibility: 10 or more miles (16+ km)
Ceiling: at least 12,000 feet AGL
Clouds: sky clear below 12,000 feet AGL
Weather: automated observation with no human augmentation;
there may or may not be significant weather present at this time

METAR text: KMNH 282033Z AUTO 16010KT 10SM VCTS SCT025 20/13 A3043 RMK AO2 LTG DSNT S THRU W
Conditions at: KMNH (MONUMENT/ELBERT , CO, US) observed 2033 UTC 28 July 2014
Temperature: 20.0°C (68°F)
Dewpoint: 13.0°C (55°F) [RH = 64%]
Pressure (altimeter): 30.43 inches Hg (1030.6 mb)
Winds: from the SSE (160 degrees) at 12 MPH (10 knots; 5.2 m/s)
Visibility: 10 or more miles (16+ km)
Ceiling: at least 12,000 feet AGL
Clouds: scattered clouds at 2500 feet AGL
Weather: VCTS  (thunderstorm in vicinity)

METAR text: KMNH 282013Z AUTO 16013G18KT 10SM VCTS SCT025 21/14 A3043 RMK AO2 LTG DSNT SE THRU NW
Conditions at: KMNH (MONUMENT/ELBERT , CO, US) observed 2013 UTC 28 July 2014
Temperature: 21.0°C (70°F)
Dewpoint: 14.0°C (57°F) [RH = 64%]
Pressure (altimeter): 30.43 inches Hg (1030.6 mb)
Winds: from the SSE (160 degrees) at 15 MPH (13 knots; 6.8 m/sgusting to 21 MPH (18 knots; 9.4 m/s)
Visibility: 10 or more miles (16+ km)
Ceiling: at least 12,000 feet AGL
Clouds: scattered clouds at 2500 feet AGL
Weather: VCTS  (thunderstorm in vicinity)

METAR text: KMNH 281953Z AUTO 15013G17KT 10SM VCTS CLR 22/15 A3043 RMK AO2 LTG DSNT SW AND W
Conditions at: KMNH (MONUMENT/ELBERT , CO, US) observed 1953 UTC 28 July 2014
Temperature: 22.0°C (72°F)
Dewpoint: 15.0°C (59°F) [RH = 65%]
Pressure (altimeter): 30.43 inches Hg (1030.6 mb)
Winds: from the SSE (150 degrees) at 15 MPH (13 knots; 6.8 m/sgusting to 20 MPH (17 knots; 8.8 m/s)
Visibility: 10 or more miles (16+ km)
Ceiling: at least 12,000 feet AGL
Clouds: sky clear below 12,000 feet AGL
Weather: VCTS  (thunderstorm in vicinity)

METAR text: KMNH 281933Z AUTO 16013KT 10SM VCTS CLR 21/14 A3043 RMK AO2 LTG DSNT S AND W
Conditions at: KMNH (MONUMENT/ELBERT , CO, US) observed 1933 UTC 28 July 2014
Temperature: 21.0°C (70°F)
Dewpoint: 14.0°C (57°F) [RH = 64%]
Pressure (altimeter): 30.43 inches Hg (1030.6 mb)
Winds: from the SSE (160 degrees) at 15 MPH (13 knots; 6.8 m/s)
Visibility: 10 or more miles (16+ km)
Ceiling: at least 12,000 feet AGL
Clouds: sky clear below 12,000 feet AGL
Weather: VCTS  (thunderstorm in vicinity)

METAR text: KMNH 281913Z AUTO 17013KT 10SM SCT019 SCT110 21/15 A3044 RMK AO2 LTG DSNT SW AND W
Conditions at: KMNH (MONUMENT/ELBERT , CO, US) observed 1913 UTC 28 July 2014
Temperature: 21.0°C (70°F)
Dewpoint: 15.0°C (59°F) [RH = 69%]
Pressure (altimeter): 30.44 inches Hg (1030.9 mb)
Winds: from the S (170 degrees) at 15 MPH (13 knots; 6.8 m/s)
Visibility: 10 or more miles (16+ km)
Ceiling: at least 12,000 feet AGL
Clouds: scattered clouds at 1900 feet AGL
scattered clouds at 11000 feet AGL
Weather: automated observation with no human augmentation;
there may or may not be significant weather present at this time

METAR text: KMNH 281853Z AUTO 16017KT 10SM SCT120 21/14 A3045 RMK AO2 LTG DSNT SW AND W
Conditions at: KMNH (MONUMENT/ELBERT , CO, US) observed 1853 UTC 28 July 2014
Temperature: 21.0°C (70°F)
Dewpoint: 14.0°C (57°F) [RH = 64%]
Pressure (altimeter): 30.45 inches Hg (1031.2 mb)
Winds: from the SSE (160 degrees) at 20 MPH (17 knots; 8.8 m/s)
Visibility: 10 or more miles (16+ km)
Ceiling: at least 12,000 feet AGL
Clouds: scattered clouds at 12000 feet AGL
Weather: automated observation with no human augmentation;
there may or may not be significant weather present at this time

METAR text: KMNH 281833Z AUTO 17015KT 10SM CLR 21/13 A3045 RMK AO2 LTG DSNT SW AND W
Conditions at: KMNH (MONUMENT/ELBERT , CO, US) observed 1833 UTC 28 July 2014
Temperature: 21.0°C (70°F)
Dewpoint: 13.0°C (55°F) [RH = 60%]
Pressure (altimeter): 30.45 inches Hg (1031.2 mb)
Winds: from the S (170 degrees) at 17 MPH (15 knots; 7.8 m/s)
Visibility: 10 or more miles (16+ km)
Ceiling: at least 12,000 feet AGL
Clouds: sky clear below 12,000 feet AGL
Weather: automated observation with no human augmentation;
there may or may not be significant weather present at this time

METAR text: KMNH 281810Z AUTO 17013G16KT 10SM CLR 22/14 A3045 RMK AO2 LTG DSNT S AND W
Conditions at: KMNH (MONUMENT/ELBERT , CO, US) observed 1810 UTC 28 July 2014
Temperature: 22.0°C (72°F)
Dewpoint: 14.0°C (57°F) [RH = 60%]
Pressure (altimeter): 30.45 inches Hg (1031.2 mb)
Winds: from the S (170 degrees) at 15 MPH (13 knots; 6.8 m/sgusting to 18 MPH (16 knots; 8.3 m/s)
Visibility: 10 or more miles (16+ km)
Ceiling: at least 12,000 feet AGL
Clouds: sky clear below 12,000 feet AGL
Weather: automated observation with no human augmentation;
there may or may not be significant weather present at this time

METAR text: KMNH 281753Z AUTO 14012KT 10SM SCT028 22/14 A3046 RMK AO2 LTG DSNT SW
Conditions at: KMNH (MONUMENT/ELBERT , CO, US) observed 1753 UTC 28 July 2014
Temperature: 22.0°C (72°F)
Dewpoint: 14.0°C (57°F) [RH = 60%]
Pressure (altimeter): 30.46 inches Hg (1031.6 mb)
Winds: from the SE (140 degrees) at 14 MPH (12 knots; 6.2 m/s)
Visibility: 10 or more miles (16+ km)
Ceiling: at least 12,000 feet AGL
Clouds: scattered clouds at 2800 feet AGL
Weather: automated observation with no human augmentation;
there may or may not be significant weather present at this time

METAR text: KMNH 281733Z AUTO 17010KT 10SM SCT030 22/15 A3046 RMK AO2
Conditions at: KMNH (MONUMENT/ELBERT , CO, US) observed 1733 UTC 28 July 2014
Temperature: 22.0°C (72°F)
Dewpoint: 15.0°C (59°F) [RH = 65%]
Pressure (altimeter): 30.46 inches Hg (1031.6 mb)
Winds: from the S (170 degrees) at 12 MPH (10 knots; 5.2 m/s)
Visibility: 10 or more miles (16+ km)
Ceiling: at least 12,000 feet AGL
Clouds: scattered clouds at 3000 feet AGL
Weather: automated observation with no human augmentation;
there may or may not be significant weather present at this time

METAR text: KMNH 281713Z AUTO 16006KT 10SM TS SCT032 22/13 A3046 RMK AO2 LTG DSNT S
Conditions at: KMNH (MONUMENT/ELBERT , CO, US) observed 1713 UTC 28 July 2014
Temperature: 22.0°C (72°F)
Dewpoint: 13.0°C (55°F) [RH = 57%]
Pressure (altimeter): 30.46 inches Hg (1031.6 mb)
Winds: from the SSE (160 degrees) at 7 MPH (6 knots; 3.1 m/s)
Visibility: 10 or more miles (16+ km)
Ceiling: at least 12,000 feet AGL
Clouds: scattered clouds at 3200 feet AGL
Weather: TS  (thunderstorm)

METAR text: KMNH 281653Z AUTO 08004KT 10SM SCT032 21/13 A3046 RMK AO2
Conditions at: KMNH (MONUMENT/ELBERT , CO, US) observed 1653 UTC 28 July 2014
Temperature: 21.0°C (70°F)
Dewpoint: 13.0°C (55°F) [RH = 60%]
Pressure (altimeter): 30.46 inches Hg (1031.6 mb)
Winds: from the E (80 degrees) at 5 MPH (4 knots; 2.1 m/s)
Visibility: 10 or more miles (16+ km)
Ceiling: at least 12,000 feet AGL
Clouds: scattered clouds at 3200 feet AGL
Weather: automated observation with no human augmentation;
there may or may not be significant weather present at this time

METAR text: KMNH 281633Z AUTO 00000KT 10SM CLR 21/12 A3046 RMK AO2
Conditions at: KMNH (MONUMENT/ELBERT , CO, US) observed 1633 UTC 28 July 2014
Temperature: 21.0°C (70°F)
Dewpoint: 12.0°C (54°F) [RH = 56%]
Pressure (altimeter): 30.46 inches Hg (1031.6 mb)
Winds: calm
Visibility: 10 or more miles (16+ km)
Ceiling: at least 12,000 feet AGL
Clouds: sky clear below 12,000 feet AGL
Weather: automated observation with no human augmentation;
there may or may not be significant weather present at this time

METAR text: KMNH 281613Z AUTO 00000KT 10SM CLR 21/11 A3046 RMK AO2
Conditions at: KMNH (MONUMENT/ELBERT , CO, US) observed 1613 UTC 28 July 2014
Temperature: 21.0°C (70°F)
Dewpoint: 11.0°C (52°F) [RH = 53%]
Pressure (altimeter): 30.46 inches Hg (1031.6 mb)
Winds: calm
Visibility: 10 or more miles (16+ km)
Ceiling: at least 12,000 feet AGL
Clouds: sky clear below 12,000 feet AGL
Weather: automated observation with no human augmentation;
there may or may not be significant weather present at this time

METAR text: KMNH 281553Z AUTO 00000KT 10SM CLR 20/12 A3046 RMK AO2
Conditions at: KMNH (MONUMENT/ELBERT , CO, US) observed 1553 UTC 28 July 2014
Temperature: 20.0°C (68°F)
Dewpoint: 12.0°C (54°F) [RH = 60%]
Pressure (altimeter): 30.46 inches Hg (1031.6 mb)
Winds: calm
Visibility: 10 or more miles (16+ km)
Ceiling: at least 12,000 feet AGL
Clouds: sky clear below 12,000 feet AGL
Weather: automated observation with no human augmentation;
there may or may not be significant weather present at this time

METAR text: KMNH 281533Z AUTO 00000KT 10SM CLR 20/12 A3046 RMK AO2
Conditions at: KMNH (MONUMENT/ELBERT , CO, US) observed 1533 UTC 28 July 2014
Temperature: 20.0°C (68°F)
Dewpoint: 12.0°C (54°F) [RH = 60%]
Pressure (altimeter): 30.46 inches Hg (1031.6 mb)
Winds: calm
Visibility: 10 or more miles (16+ km)
Ceiling: at least 12,000 feet AGL
Clouds: sky clear below 12,000 feet AGL
Weather: automated observation with no human augmentation;
there may or may not be significant weather present at this time

METAR text: KMNH 281513Z AUTO 00000KT 10SM CLR 19/12 A3046 RMK AO2
Conditions at: KMNH (MONUMENT/ELBERT , CO, US) observed 1513 UTC 28 July 2014
Temperature: 19.0°C (66°F)
Dewpoint: 12.0°C (54°F) [RH = 64%]
Pressure (altimeter): 30.46 inches Hg (1031.6 mb)
Winds: calm
Visibility: 10 or more miles (16+ km)
Ceiling: at least 12,000 feet AGL
Clouds: sky clear below 12,000 feet AGL
Weather: automated observation with no human augmentation;
there may or may not be significant weather present at this time

METAR text: KMNH 281453Z AUTO 33003KT 10SM CLR 18/12 A3046 RMK AO2
Conditions at: KMNH (MONUMENT/ELBERT , CO, US) observed 1453 UTC 28 July 2014
Temperature: 18.0°C (64°F)
Dewpoint: 12.0°C (54°F) [RH = 68%]
Pressure (altimeter): 30.46 inches Hg (1031.6 mb)
Winds: from the NNW (330 degrees) at 3 MPH (3 knots; 1.6 m/s)
Visibility: 10 or more miles (16+ km)
Ceiling: at least 12,000 feet AGL
Clouds: sky clear below 12,000 feet AGL
Weather: automated observation with no human augmentation;
there may or may not be significant weather present at this time

METAR text: KMNH 281433Z AUTO 32004KT 10SM CLR 18/12 A3046 RMK AO2
Conditions at: KMNH (MONUMENT/ELBERT , CO, US) observed 1433 UTC 28 July 2014
Temperature: 18.0°C (64°F)
Dewpoint: 12.0°C (54°F) [RH = 68%]
Pressure (altimeter): 30.46 inches Hg (1031.6 mb)
Winds: from the NW (320 degrees) at 5 MPH (4 knots; 2.1 m/s)
Visibility: 10 or more miles (16+ km)
Ceiling: at least 12,000 feet AGL
Clouds: sky clear below 12,000 feet AGL
Weather: automated observation with no human augmentation;
there may or may not be significant weather present at this time

METAR text: KMNH 281413Z AUTO 24004KT 10SM CLR 18/12 A3045 RMK AO2
Conditions at: KMNH (MONUMENT/ELBERT , CO, US) observed 1413 UTC 28 July 2014
Temperature: 18.0°C (64°F)
Dewpoint: 12.0°C (54°F) [RH = 68%]
Pressure (altimeter): 30.45 inches Hg (1031.2 mb)
Winds: from the WSW (240 degrees) at 5 MPH (4 knots; 2.1 m/s)
Visibility: 10 or more miles (16+ km)
Ceiling: at least 12,000 feet AGL
Clouds: sky clear below 12,000 feet AGL
Weather: automated observation with no human augmentation;
there may or may not be significant weather present at this time

METAR text: KMNH 281352Z AUTO 20008KT 10SM CLR 17/12 A3045 RMK AO2
Conditions at: KMNH (MONUMENT/ELBERT , CO, US) observed 1352 UTC 28 July 2014
Temperature: 17.0°C (63°F)
Dewpoint: 12.0°C (54°F) [RH = 72%]
Pressure (altimeter): 30.45 inches Hg (1031.2 mb)
Winds: from the SSW (200 degrees) at 9 MPH (8 knots; 4.2 m/s)
Visibility: 10 or more miles (16+ km)
Ceiling: at least 12,000 feet AGL
Clouds: sky clear below 12,000 feet AGL
Weather: automated observation with no human augmentation;
there may or may not be significant weather present at this time

METAR text: KMNH 281332Z AUTO 20008KT 10SM CLR 16/12 A3044 RMK AO2
Conditions at: KMNH (MONUMENT/ELBERT , CO, US) observed 1332 UTC 28 July 2014
Temperature: 16.0°C (61°F)
Dewpoint: 12.0°C (54°F) [RH = 77%]
Pressure (altimeter): 30.44 inches Hg (1030.9 mb)
Winds: from the SSW (200 degrees) at 9 MPH (8 knots; 4.2 m/s)
Visibility: 10 or more miles (16+ km)
Ceiling: at least 12,000 feet AGL
Clouds: sky clear below 12,000 feet AGL
Weather: automated observation with no human augmentation;
there may or may not be significant weather present at this time

METAR text: KMNH 281313Z AUTO 19008KT 10SM CLR 15/12 A3044 RMK AO2
Conditions at: KMNH (MONUMENT/ELBERT , CO, US) observed 1313 UTC 28 July 2014
Temperature: 15.0°C (59°F)
Dewpoint: 12.0°C (54°F) [RH = 82%]
Pressure (altimeter): 30.44 inches Hg (1030.9 mb)
Winds: from the S (190 degrees) at 9 MPH (8 knots; 4.2 m/s)
Visibility: 10 or more miles (16+ km)
Ceiling: at least 12,000 feet AGL
Clouds: sky clear below 12,000 feet AGL
Weather: automated observation with no human augmentation;
there may or may not be significant weather present at this time

METAR text: KMNH 281253Z AUTO 19008KT 10SM CLR 13/11 A3044 RMK AO2
Conditions at: KMNH (MONUMENT/ELBERT , CO, US) observed 1253 UTC 28 July 2014
Temperature: 13.0°C (55°F)
Dewpoint: 11.0°C (52°F) [RH = 88%]
Pressure (altimeter): 30.44 inches Hg (1030.9 mb)
Winds: from the S (190 degrees) at 9 MPH (8 knots; 4.2 m/s)
Visibility: 10 or more miles (16+ km)
Ceiling: at least 12,000 feet AGL
Clouds: sky clear below 12,000 feet AGL
Weather: automated observation with no human augmentation;
there may or may not be significant weather present at this time

METAR text: KMNH 281233Z AUTO 19008KT 10SM CLR 12/11 A3044 RMK AO2
Conditions at: KMNH (MONUMENT/ELBERT , CO, US) observed 1233 UTC 28 July 2014
Temperature: 12.0°C (54°F)
Dewpoint: 11.0°C (52°F) [RH = 94%]
Pressure (altimeter): 30.44 inches Hg (1030.9 mb)
Winds: from the S (190 degrees) at 9 MPH (8 knots; 4.2 m/s)
Visibility: 10 or more miles (16+ km)
Ceiling: at least 12,000 feet AGL
Clouds: sky clear below 12,000 feet AGL
Weather: automated observation with no human augmentation;
there may or may not be significant weather present at this time

METAR text: KMNH 281213Z AUTO 17007KT 10SM CLR 12/11 A3044 RMK AO2
Conditions at: KMNH (MONUMENT/ELBERT , CO, US) observed 1213 UTC 28 July 2014
Temperature: 12.0°C (54°F)
Dewpoint: 11.0°C (52°F) [RH = 94%]
Pressure (altimeter): 30.44 inches Hg (1030.9 mb)
Winds: from the S (170 degrees) at 8 MPH (7 knots; 3.6 m/s)
Visibility: 10 or more miles (16+ km)
Ceiling: at least 12,000 feet AGL
Clouds: sky clear below 12,000 feet AGL
Weather: automated observation with no human augmentation;
there may or may not be significant weather present at this time

METAR text: KMNH 281153Z AUTO 19007KT 10SM CLR 12/11 A3044 RMK AO2
Conditions at: KMNH (MONUMENT/ELBERT , CO, US) observed 1153 UTC 28 July 2014
Temperature: 12.0°C (54°F)
Dewpoint: 11.0°C (52°F) [RH = 94%]
Pressure (altimeter): 30.44 inches Hg (1030.9 mb)
Winds: from the S (190 degrees) at 8 MPH (7 knots; 3.6 m/s)
Visibility: 10 or more miles (16+ km)
Ceiling: at least 12,000 feet AGL
Clouds: sky clear below 12,000 feet AGL
Weather: automated observation with no human augmentation;
there may or may not be significant weather present at this time

METAR text: KMNH 281133Z AUTO 18009KT 10SM CLR 12/11 A3044 RMK AO2
Conditions at: KMNH (MONUMENT/ELBERT , CO, US) observed 1133 UTC 28 July 2014
Temperature: 12.0°C (54°F)
Dewpoint: 11.0°C (52°F) [RH = 94%]
Pressure (altimeter): 30.44 inches Hg (1030.9 mb)
Winds: from the S (180 degrees) at 10 MPH (9 knots; 4.7 m/s)
Visibility: 10 or more miles (16+ km)
Ceiling: at least 12,000 feet AGL
Clouds: sky clear below 12,000 feet AGL
Weather: automated observation with no human augmentation;
there may or may not be significant weather present at this time

METAR text: KMNH 281113Z AUTO 19012G16KT 10SM CLR 13/11 A3044 RMK AO2
Conditions at: KMNH (MONUMENT/ELBERT , CO, US) observed 1113 UTC 28 July 2014
Temperature: 13.0°C (55°F)
Dewpoint: 11.0°C (52°F) [RH = 88%]
Pressure (altimeter): 30.44 inches Hg (1030.9 mb)
Winds: from the S (190 degrees) at 14 MPH (12 knots; 6.2 m/sgusting to 18 MPH (16 knots; 8.3 m/s)
Visibility: 10 or more miles (16+ km)
Ceiling: at least 12,000 feet AGL
Clouds: sky clear below 12,000 feet AGL
Weather: automated observation with no human augmentation;
there may or may not be significant weather present at this time

METAR text: KMNH 281053Z AUTO 21007KT 10SM CLR 13/11 A3044 RMK AO2
Conditions at: KMNH (MONUMENT/ELBERT , CO, US) observed 1053 UTC 28 July 2014
Temperature: 13.0°C (55°F)
Dewpoint: 11.0°C (52°F) [RH = 88%]
Pressure (altimeter): 30.44 inches Hg (1030.9 mb)
Winds: from the SSW (210 degrees) at 8 MPH (7 knots; 3.6 m/s)
Visibility: 10 or more miles (16+ km)
Ceiling: at least 12,000 feet AGL
Clouds: sky clear below 12,000 feet AGL
Weather: automated observation with no human augmentation;
there may or may not be significant weather present at this time